createdAt,value
2017-07-23T00:01:25.152Z,62.41
2017-07-23T00:03:52.576Z,62.87
2017-07-23T00:06:20.027Z,63.36
2017-07-23T00:08:47.487Z,64.05
2017-07-23T00:11:14.923Z,64.51
2017-07-23T00:13:42.385Z,65.22
2017-07-23T00:16:09.791Z,64.70
2017-07-23T00:18:37.243Z,64.59
2017-07-23T00:21:04.680Z,64.99
2017-07-23T00:23:32.123Z,65.52
2017-07-23T00:25:59.563Z,65.04
2017-07-23T00:28:26.971Z,64.77
2017-07-23T00:30:54.481Z,64.63
2017-07-23T00:33:21.895Z,64.58
2017-07-23T00:35:49.381Z,64.61
2017-07-23T00:38:16.787Z,65.14
2017-07-23T00:40:44.262Z,65.68
2017-07-23T00:43:11.688Z,65.83
2017-07-23T00:45:39.131Z,66.79
2017-07-23T00:48:06.571Z,68.16
2017-07-23T00:50:33.974Z,69.51
2017-07-23T00:53:01.429Z,69.45
2017-07-23T00:55:28.859Z,69.59
2017-07-23T00:57:56.267Z,70.42
2017-07-23T01:00:24.170Z,69.50
2017-07-23T01:02:51.582Z,70.09
2017-07-23T01:05:18.995Z,69.31
2017-07-23T01:07:46.424Z,70.59
2017-07-23T01:10:13.835Z,71.00
2017-07-23T01:12:41.281Z,70.20
2017-07-23T01:15:08.703Z,71.03
2017-07-23T01:17:36.124Z,71.14
2017-07-23T01:20:04.282Z,71.13
2017-07-23T01:22:31.690Z,71.87
2017-07-23T01:24:59.137Z,71.84
2017-07-23T01:27:26.560Z,72.43
2017-07-23T01:29:53.962Z,71.41
2017-07-23T01:32:21.426Z,71.36
2017-07-23T01:34:48.872Z,71.22
2017-07-23T01:37:16.280Z,70.40
2017-07-23T01:39:43.715Z,71.05
2017-07-23T01:42:11.167Z,71.48
2017-07-23T01:44:38.567Z,72.20
2017-07-23T01:47:05.978Z,72.28
2017-07-23T01:49:33.412Z,72.24
2017-07-23T01:52:00.832Z,71.08
2017-07-23T01:54:28.268Z,71.46
2017-07-23T01:56:55.697Z,71.65
2017-07-23T01:59:23.116Z,71.56
2017-07-23T02:01:50.545Z,72.07
2017-07-23T02:04:17.961Z,72.61
2017-07-23T02:06:45.452Z,72.69
2017-07-23T02:09:12.867Z,73.82
2017-07-23T02:11:40.300Z,74.79
2017-07-23T02:14:07.728Z,74.10
2017-07-23T02:16:35.131Z,74.24
2017-07-23T02:19:02.568Z,74.98
2017-07-23T02:21:29.971Z,75.49
2017-07-23T02:23:58.081Z,76.99
2017-07-23T02:26:25.481Z,79.83
2017-07-23T02:28:52.909Z,80.32
2017-07-23T02:31:20.307Z,80.97
2017-07-23T02:33:47.795Z,82.45
2017-07-23T02:36:15.239Z,82.22
2017-07-23T02:38:42.643Z,82.75
2017-07-23T02:41:10.080Z,82.88
2017-07-23T02:43:37.526Z,81.89
2017-07-23T02:46:05.016Z,81.86
2017-07-23T02:48:32.420Z,82.71
2017-07-23T02:50:59.847Z,82.93
2017-07-23T02:53:27.673Z,83.23
2017-07-23T02:55:55.088Z,83.12
2017-07-23T02:58:22.497Z,82.92
2017-07-23T03:00:50.001Z,83.68
2017-07-23T03:03:17.439Z,82.64
2017-07-23T03:05:45.063Z,82.74
2017-07-23T03:08:12.498Z,83.17
2017-07-23T03:10:39.938Z,83.00
2017-07-23T03:13:07.358Z,82.69
2017-07-23T03:15:34.797Z,83.44
2017-07-23T03:18:02.212Z,84.15
2017-07-23T03:20:29.666Z,82.91
2017-07-23T03:22:57.075Z,83.36
2017-07-23T03:25:24.507Z,83.49
2017-07-23T03:27:51.962Z,83.89
2017-07-23T03:30:19.380Z,83.72
2017-07-23T03:32:46.792Z,83.61
2017-07-23T03:35:14.231Z,83.70
2017-07-23T03:37:41.644Z,83.51
2017-07-23T03:40:09.088Z,83.00
2017-07-23T03:42:36.511Z,83.01
2017-07-23T03:45:04.806Z,83.09
2017-07-23T03:47:32.215Z,83.13
2017-07-23T03:49:59.695Z,83.09
2017-07-23T03:52:27.255Z,82.66
2017-07-23T03:54:54.668Z,82.45
2017-07-23T03:57:22.095Z,82.17
2017-07-23T03:59:49.492Z,82.74
2017-07-23T04:02:16.934Z,81.48
2017-07-23T04:04:44.419Z,81.75
2017-07-23T04:07:11.839Z,82.12
2017-07-23T04:09:39.353Z,82.32
2017-07-23T04:12:06.824Z,83.08
2017-07-23T04:14:34.410Z,83.59
2017-07-23T04:17:01.815Z,82.53
2017-07-23T04:19:29.255Z,83.59
2017-07-23T04:21:56.749Z,81.60
2017-07-23T04:24:24.319Z,81.44
2017-07-23T04:26:51.732Z,82.87
2017-07-23T04:29:19.163Z,82.23
2017-07-23T04:31:46.599Z,82.29
2017-07-23T04:34:14.025Z,82.43
2017-07-23T04:36:41.448Z,82.82
2017-07-23T04:39:09.085Z,84.26
2017-07-23T04:41:36.511Z,85.44
2017-07-23T04:44:03.965Z,84.45
2017-07-23T04:46:31.386Z,85.74
2017-07-23T04:48:58.856Z,85.28
2017-07-23T04:51:26.281Z,86.23
2017-07-23T04:53:53.692Z,86.43
2017-07-23T04:56:21.207Z,85.19
2017-07-23T04:58:48.707Z,84.63
2017-07-23T05:01:16.297Z,85.92
2017-07-23T05:03:43.793Z,84.40
2017-07-23T05:06:11.522Z,83.45
2017-07-23T05:08:38.939Z,84.38
2017-07-23T05:11:06.348Z,84.66
2017-07-23T05:13:33.809Z,83.59
2017-07-23T05:16:01.235Z,83.12
2017-07-23T05:18:28.669Z,83.62
2017-07-23T05:20:56.073Z,82.76
2017-07-23T05:23:23.963Z,81.88
2017-07-23T05:25:51.367Z,81.18
2017-07-23T05:28:18.775Z,82.50
2017-07-23T05:30:46.265Z,83.21
2017-07-23T05:33:13.691Z,83.04
2017-07-23T05:35:41.103Z,83.80
2017-07-23T05:38:08.520Z,83.02
2017-07-23T05:40:36.056Z,82.69
2017-07-23T05:43:03.480Z,82.07
2017-07-23T05:45:30.910Z,82.27
2017-07-23T05:47:58.457Z,82.52
2017-07-23T05:50:25.916Z,82.37
2017-07-23T05:52:53.335Z,81.59
2017-07-23T05:55:20.755Z,82.32
2017-07-23T05:57:48.180Z,82.58
2017-07-23T06:00:15.592Z,82.65
2017-07-23T06:02:43.032Z,81.60
2017-07-23T06:05:10.447Z,82.47
2017-07-23T06:07:38.352Z,82.35
2017-07-23T06:10:05.839Z,82.00
2017-07-23T06:12:33.237Z,82.49
2017-07-23T06:15:00.676Z,81.40
2017-07-23T06:17:28.083Z,81.00
2017-07-23T06:19:55.511Z,80.54
2017-07-23T06:22:22.936Z,80.84
2017-07-23T06:24:50.395Z,80.20
2017-07-23T06:27:17.885Z,80.61
2017-07-23T06:29:45.793Z,80.94
2017-07-23T06:32:13.182Z,80.01
2017-07-23T06:34:40.671Z,77.42
2017-07-23T06:37:08.104Z,72.10
2017-07-23T06:39:35.628Z,73.27
2017-07-23T06:42:03.090Z,76.79
2017-07-23T06:44:30.520Z,75.50
2017-07-23T06:46:58.046Z,73.30
2017-07-23T06:49:25.466Z,73.59
2017-07-23T06:51:52.901Z,72.50
2017-07-23T06:54:20.454Z,73.95
2017-07-23T06:56:47.847Z,71.77
2017-07-23T06:59:15.295Z,69.54
2017-07-23T07:01:42.706Z,71.10
2017-07-23T07:04:10.156Z,69.05
2017-07-23T07:06:37.594Z,69.81
2017-07-23T07:09:05.019Z,72.66
2017-07-23T07:11:32.439Z,72.13
2017-07-23T07:13:59.877Z,67.50
2017-07-23T07:16:27.301Z,69.91
2017-07-23T07:18:55.127Z,69.64
2017-07-23T07:21:22.543Z,71.92
2017-07-23T07:23:50.000Z,71.50
2017-07-23T07:26:17.457Z,69.90
2017-07-23T07:28:44.875Z,70.46
2017-07-23T07:31:12.388Z,71.51
2017-07-23T07:33:40.548Z,70.47
2017-07-23T07:36:08.051Z,71.99
2017-07-23T07:38:35.541Z,72.29
2017-07-23T07:41:03.040Z,72.38
2017-07-23T07:43:30.454Z,71.81
2017-07-23T07:45:57.851Z,71.70
2017-07-23T07:48:25.316Z,71.97
2017-07-23T07:50:52.726Z,71.51
2017-07-23T07:53:20.166Z,70.26
2017-07-23T07:55:47.572Z,69.87
2017-07-23T07:58:15.027Z,70.63
2017-07-23T08:00:42.664Z,69.79
2017-07-23T08:03:10.207Z,72.05
2017-07-23T08:05:37.664Z,68.82
2017-07-23T08:08:05.112Z,70.36
2017-07-23T08:10:33.068Z,70.31
2017-07-23T08:13:00.599Z,67.07
2017-07-23T08:15:28.147Z,68.81
2017-07-23T08:17:55.556Z,69.43
2017-07-23T08:20:23.006Z,67.23
2017-07-23T08:22:50.419Z,68.30
2017-07-23T08:25:19.500Z,67.77
2017-07-23T08:27:47.031Z,63.82
2017-07-23T08:30:14.433Z,60.79
2017-07-23T08:32:41.868Z,58.09
2017-07-23T08:35:09.336Z,59.82
2017-07-23T08:37:36.788Z,59.47
2017-07-23T08:40:04.251Z,57.96
2017-07-23T08:42:31.728Z,59.86
2017-07-23T08:44:59.182Z,59.39
2017-07-23T08:47:26.669Z,58.20
2017-07-23T08:49:54.099Z,58.73
2017-07-23T08:52:21.551Z,58.64
2017-07-23T08:54:49.066Z,59.66
2017-07-23T08:57:16.572Z,61.07
2017-07-23T08:59:44.171Z,60.68
2017-07-23T09:02:12.115Z,54.98
2017-07-23T09:04:39.558Z,58.18
2017-07-23T09:07:06.979Z,60.30
2017-07-23T09:09:34.428Z,57.42
2017-07-23T09:12:01.900Z,56.82
2017-07-23T09:14:29.324Z,56.00
2017-07-23T09:16:56.804Z,56.72
2017-07-23T09:19:24.200Z,58.37
2017-07-23T09:21:51.626Z,57.98
2017-07-23T09:24:19.035Z,58.83
2017-07-23T09:26:46.497Z,58.55
2017-07-23T09:29:13.962Z,59.65
2017-07-23T09:31:42.281Z,59.30
2017-07-23T09:34:09.795Z,59.24
2017-07-23T09:36:37.216Z,58.02
2017-07-23T09:39:04.690Z,57.91
2017-07-23T09:41:32.138Z,56.73
2017-07-23T09:43:59.666Z,56.90
2017-07-23T09:46:27.102Z,58.23
2017-07-23T09:48:54.573Z,56.66
2017-07-23T09:51:21.987Z,56.72
2017-07-23T09:53:49.489Z,55.81
2017-07-23T09:56:17.009Z,54.49
2017-07-23T09:58:44.536Z,55.83
2017-07-23T10:01:12.054Z,52.46
2017-07-23T10:03:39.476Z,54.35
2017-07-23T10:06:07.099Z,54.01
2017-07-23T10:08:34.559Z,53.01
2017-07-23T10:11:02.035Z,53.30
2017-07-23T10:13:29.605Z,53.79
2017-07-23T10:15:57.103Z,54.10
2017-07-23T10:18:24.542Z,54.56
2017-07-23T10:20:51.957Z,54.15
2017-07-23T10:23:19.453Z,51.87
2017-07-23T10:25:46.898Z,52.49
2017-07-23T10:28:14.364Z,53.76
2017-07-23T10:30:42.161Z,52.36
2017-07-23T10:33:09.591Z,51.62
2017-07-23T10:35:37.042Z,53.60
2017-07-23T10:38:04.511Z,53.07
2017-07-23T10:40:31.988Z,52.99
2017-07-23T10:42:59.484Z,53.55
2017-07-23T10:45:26.903Z,51.43
2017-07-23T10:47:54.354Z,53.45
2017-07-23T10:50:21.804Z,53.41
2017-07-23T10:52:49.243Z,50.84
2017-07-23T10:55:16.717Z,50.63
2017-07-23T10:57:44.133Z,52.11
2017-07-23T11:00:11.554Z,51.01
2017-07-23T11:02:39.000Z,49.36
2017-07-23T11:05:06.425Z,51.81
2017-07-23T11:07:34.023Z,51.26
2017-07-23T11:10:01.619Z,50.53
2017-07-23T11:12:29.229Z,51.04
2017-07-23T11:14:56.763Z,51.93
2017-07-23T11:17:24.215Z,51.06
2017-07-23T11:19:51.641Z,52.75
2017-07-23T11:22:19.078Z,52.72
2017-07-23T11:24:46.573Z,50.50
2017-07-23T11:27:14.027Z,50.01
2017-07-23T11:29:41.563Z,48.79
2017-07-23T11:32:09.144Z,48.50
2017-07-23T11:34:36.542Z,47.08
2017-07-23T11:37:04.201Z,47.40
2017-07-23T11:39:31.636Z,48.07
2017-07-23T11:41:59.113Z,47.52
2017-07-23T11:44:26.771Z,46.52
2017-07-23T11:46:54.199Z,48.10
2017-07-23T11:49:21.656Z,47.64
2017-07-23T11:51:49.079Z,46.90
2017-07-23T11:54:16.551Z,47.41
2017-07-23T11:56:44.024Z,47.27
2017-07-23T11:59:11.451Z,47.49
2017-07-23T12:01:38.868Z,47.54
2017-07-23T12:04:06.320Z,46.31
2017-07-23T12:06:33.741Z,46.23
2017-07-23T12:09:01.180Z,45.78
2017-07-23T12:11:28.591Z,44.84
2017-07-23T12:13:56.045Z,44.71
2017-07-23T12:16:23.604Z,45.64
2017-07-23T12:18:51.057Z,46.64
2017-07-23T12:21:18.643Z,47.62
2017-07-23T12:23:46.115Z,47.38
2017-07-23T12:26:13.731Z,45.86
2017-07-23T12:28:41.350Z,44.68
2017-07-23T12:31:08.775Z,44.94
2017-07-23T12:33:36.289Z,43.29
2017-07-23T12:36:03.978Z,42.64
2017-07-23T12:38:31.408Z,43.37
2017-07-23T12:40:58.854Z,42.61
2017-07-23T12:43:26.375Z,42.62
2017-07-23T12:45:53.823Z,41.65
2017-07-23T12:48:21.351Z,42.27
2017-07-23T12:50:48.909Z,41.28
2017-07-23T12:53:16.343Z,39.42
2017-07-23T12:55:44.373Z,33.83
2017-07-23T12:58:11.833Z,32.58
2017-07-23T13:00:39.417Z,34.51
2017-07-23T13:03:06.869Z,32.29
2017-07-23T13:05:34.327Z,31.63
2017-07-23T13:08:02.066Z,33.95
2017-07-23T13:10:29.516Z,36.45
2017-07-23T13:12:57.165Z,34.86
2017-07-23T13:15:24.675Z,31.92
2017-07-23T13:17:52.327Z,28.81
2017-07-23T13:20:19.878Z,30.10
2017-07-23T13:22:47.307Z,32.01
2017-07-23T13:25:14.765Z,27.67
2017-07-23T13:27:42.217Z,28.72
2017-07-23T13:30:09.615Z,27.82
2017-07-23T13:32:37.046Z,30.32
2017-07-23T13:35:04.446Z,32.94
2017-07-23T13:37:31.904Z,33.94
2017-07-23T13:39:59.320Z,33.33
2017-07-23T13:42:26.785Z,33.85
2017-07-23T13:44:54.241Z,33.60
2017-07-23T13:47:21.667Z,33.10
2017-07-23T13:49:49.151Z,33.52
2017-07-23T13:52:17.472Z,33.89
2017-07-23T13:54:44.927Z,34.68
2017-07-23T13:57:12.349Z,34.69
2017-07-23T13:59:39.894Z,35.45
2017-07-23T14:02:07.346Z,34.90
2017-07-23T14:04:34.839Z,34.84
2017-07-23T14:07:02.339Z,33.39
2017-07-23T14:09:29.817Z,32.25
2017-07-23T14:11:57.241Z,33.80
2017-07-23T14:14:24.695Z,35.42
2017-07-23T14:16:52.114Z,36.67
2017-07-23T14:19:19.559Z,34.18
2017-07-23T14:21:46.975Z,35.18
2017-07-23T14:24:14.567Z,35.27
2017-07-23T14:26:42.115Z,36.07
2017-07-23T14:29:09.535Z,37.20
2017-07-23T14:31:36.979Z,36.69
2017-07-23T14:34:05.285Z,37.44
2017-07-23T14:39:06.677Z,35.07
2017-07-23T14:41:34.111Z,33.72
2017-07-23T14:44:01.561Z,33.73
2017-07-23T14:46:28.993Z,33.96
2017-07-23T14:48:56.447Z,33.68
2017-07-23T14:51:23.866Z,36.45
2017-07-23T14:53:51.296Z,37.62
2017-07-23T14:56:18.740Z,38.47
2017-07-23T14:58:46.185Z,37.74
2017-07-23T15:01:13.651Z,37.26
2017-07-23T15:03:41.096Z,38.35
2017-07-23T15:06:08.529Z,38.82
2017-07-23T15:08:35.996Z,38.23
2017-07-23T15:11:03.401Z,38.03
2017-07-23T15:13:30.875Z,37.42
2017-07-23T15:15:58.346Z,39.37
2017-07-23T15:18:25.756Z,38.16
2017-07-23T15:20:53.228Z,38.52
2017-07-23T15:23:20.666Z,40.39
2017-07-23T15:25:48.098Z,38.46
2017-07-23T15:28:15.507Z,40.37
2017-07-23T15:30:43.025Z,40.53
2017-07-23T15:33:10.490Z,40.15
2017-07-23T15:35:37.946Z,40.41
2017-07-23T15:38:05.414Z,40.86
2017-07-23T15:40:32.864Z,40.66
2017-07-23T15:43:00.296Z,41.46
2017-07-23T15:45:27.718Z,41.21
2017-07-23T15:47:55.148Z,42.16
2017-07-23T15:50:22.573Z,41.52
2017-07-23T15:52:50.051Z,41.79
2017-07-23T15:55:17.469Z,42.17
2017-07-23T15:57:44.886Z,41.80
2017-07-23T16:00:12.311Z,40.73
2017-07-23T16:02:39.726Z,40.96
2017-07-23T16:05:07.225Z,41.66
2017-07-23T16:07:34.659Z,41.06
2017-07-23T16:10:02.075Z,39.82
2017-07-23T16:12:29.560Z,41.80
2017-07-23T16:14:56.972Z,42.14
2017-07-23T16:17:24.417Z,41.10
2017-07-23T16:19:51.906Z,40.14
2017-07-23T16:22:19.328Z,40.99
2017-07-23T16:24:46.766Z,40.21
2017-07-23T16:27:14.237Z,40.42
2017-07-23T16:29:41.683Z,40.31
2017-07-23T16:32:09.108Z,41.16
2017-07-23T16:34:36.521Z,42.06
2017-07-23T16:37:03.964Z,41.59
2017-07-23T16:39:31.399Z,41.86
2017-07-23T16:41:58.821Z,43.11
2017-07-23T16:44:26.295Z,41.69
2017-07-23T16:46:53.728Z,41.69
2017-07-23T16:49:21.169Z,40.98
2017-07-23T16:51:48.636Z,41.44
2017-07-23T16:54:16.122Z,41.58
2017-07-23T16:56:43.525Z,40.24
2017-07-23T16:59:10.980Z,38.97
2017-07-23T17:01:38.635Z,39.23
2017-07-23T17:04:06.098Z,39.25
2017-07-23T17:06:33.529Z,41.13
2017-07-23T17:09:00.981Z,40.54
2017-07-23T17:11:28.461Z,39.55
2017-07-23T17:13:55.924Z,40.72
2017-07-23T17:16:23.415Z,41.37
2017-07-23T17:18:50.887Z,41.98
2017-07-23T17:21:18.482Z,41.19
2017-07-23T17:23:45.971Z,41.34
2017-07-23T17:26:13.518Z,40.42
2017-07-23T17:28:41.010Z,40.96
2017-07-23T17:31:08.447Z,40.75
2017-07-23T17:33:35.962Z,41.31
2017-07-23T17:36:03.397Z,41.65
2017-07-23T17:38:30.916Z,42.50
2017-07-23T17:40:58.463Z,42.98
2017-07-23T17:43:25.910Z,41.70
2017-07-23T17:45:53.316Z,41.58
2017-07-23T17:48:20.797Z,42.78
2017-07-23T17:50:48.270Z,43.29
2017-07-23T17:53:15.717Z,42.25
2017-07-23T17:55:43.173Z,43.29
2017-07-23T17:58:10.676Z,42.57
2017-07-23T18:00:38.199Z,42.79
2017-07-23T18:03:05.620Z,42.58
2017-07-23T18:05:33.102Z,42.92
2017-07-23T18:08:00.619Z,43.57
2017-07-23T18:10:28.029Z,44.47
2017-07-23T18:12:55.639Z,43.66
2017-07-23T18:15:23.088Z,44.48
2017-07-23T18:17:50.570Z,44.26
2017-07-23T18:20:18.004Z,44.06
2017-07-23T18:22:45.471Z,43.90
2017-07-23T18:25:12.982Z,44.46
2017-07-23T18:27:40.507Z,44.34
2017-07-23T18:30:08.083Z,44.23
2017-07-23T18:32:35.498Z,44.50
2017-07-23T18:35:02.916Z,44.14
2017-07-23T18:37:30.396Z,44.80
2017-07-23T18:39:57.843Z,44.63
2017-07-23T18:42:25.376Z,44.71
2017-07-23T18:44:52.901Z,44.44
2017-07-23T18:47:20.418Z,44.73
2017-07-23T18:49:47.879Z,45.56
2017-07-23T18:52:15.457Z,46.03
2017-07-23T18:54:42.936Z,46.47
2017-07-23T18:57:10.450Z,46.68
2017-07-23T18:59:37.989Z,47.16
2017-07-23T19:02:06.349Z,47.88
2017-07-23T19:04:33.791Z,47.77
2017-07-23T19:07:01.290Z,47.89
2017-07-23T19:09:28.696Z,46.73
2017-07-23T19:11:56.188Z,47.49
2017-07-23T19:14:23.692Z,47.52
2017-07-23T19:16:51.214Z,46.62
2017-07-23T19:19:18.630Z,47.06
2017-07-23T19:21:46.232Z,49.15
2017-07-23T19:24:13.680Z,49.25
2017-07-23T19:26:41.093Z,48.90
2017-07-23T19:29:08.535Z,48.99
2017-07-23T19:31:35.964Z,48.03
2017-07-23T19:34:03.489Z,48.60
2017-07-23T19:36:30.916Z,48.58
2017-07-23T19:38:58.396Z,48.18
2017-07-23T19:41:25.834Z,48.07
2017-07-23T19:43:53.294Z,48.81
2017-07-23T19:46:20.726Z,49.36
2017-07-23T19:48:48.144Z,50.47
2017-07-23T19:51:15.661Z,49.34
2017-07-23T19:53:43.310Z,52.65
2017-07-23T19:56:10.842Z,53.34
2017-07-23T19:58:38.436Z,53.23
2017-07-23T20:01:05.841Z,52.87
2017-07-23T20:03:33.350Z,53.75
2017-07-23T20:06:01.809Z,54.06
2017-07-23T20:08:29.241Z,52.93
2017-07-23T20:10:56.686Z,55.06
2017-07-23T20:13:24.094Z,54.88
2017-07-23T20:15:51.551Z,54.89
2017-07-23T20:18:18.972Z,56.08
2017-07-23T20:20:46.453Z,55.17
2017-07-23T20:23:14.042Z,57.03
2017-07-23T20:25:41.493Z,56.34
2017-07-23T20:28:08.912Z,54.80
2017-07-23T20:30:36.366Z,56.91
2017-07-23T20:33:03.816Z,58.29
2017-07-23T20:35:31.285Z,58.77
2017-07-23T20:37:58.696Z,59.23
2017-07-23T20:40:26.161Z,58.94
2017-07-23T20:42:53.595Z,59.12
2017-07-23T20:45:21.000Z,58.28
2017-07-23T20:47:48.469Z,57.34
2017-07-23T20:50:15.907Z,58.21
2017-07-23T20:52:43.337Z,59.25
2017-07-23T20:55:10.852Z,58.93
2017-07-23T20:57:38.347Z,59.62
2017-07-23T21:00:05.906Z,58.92
2017-07-23T21:02:33.318Z,58.20
2017-07-23T21:05:00.813Z,58.05
2017-07-23T21:07:28.238Z,57.42
2017-07-23T21:09:55.645Z,57.31
2017-07-23T21:12:23.136Z,57.88
2017-07-23T21:14:50.595Z,58.83
2017-07-23T21:17:18.097Z,59.66
2017-07-23T21:19:45.528Z,59.88
2017-07-23T21:22:12.980Z,59.90
2017-07-23T21:24:40.398Z,60.02
2017-07-23T21:27:07.819Z,61.26
2017-07-23T21:29:35.283Z,61.72
2017-07-23T21:32:02.676Z,62.41
2017-07-23T21:34:30.299Z,62.49
2017-07-23T21:36:57.846Z,61.57
2017-07-23T21:39:25.291Z,61.57
2017-07-23T21:41:52.697Z,62.21
2017-07-23T21:44:20.185Z,62.80
2017-07-23T21:46:47.615Z,62.80
2017-07-23T21:49:15.046Z,63.32
2017-07-23T21:51:42.486Z,63.69
2017-07-23T21:54:09.988Z,63.96
2017-07-23T21:56:37.560Z,63.01
2017-07-23T21:59:04.982Z,62.16
2017-07-23T22:01:32.387Z,61.62
2017-07-23T22:03:59.841Z,61.75
2017-07-23T22:06:27.285Z,61.39
2017-07-23T22:08:54.720Z,61.33
2017-07-23T22:11:22.136Z,62.66
2017-07-23T22:13:49.731Z,63.11
2017-07-23T22:16:17.124Z,63.33
2017-07-23T22:18:44.525Z,64.31
2017-07-23T22:21:11.989Z,64.28
2017-07-23T22:23:39.397Z,64.25
2017-07-23T22:26:06.835Z,64.08
2017-07-23T22:28:34.259Z,63.59
2017-07-23T22:31:01.677Z,63.77
2017-07-23T22:33:29.145Z,63.53
2017-07-23T22:35:56.557Z,64.12
2017-07-23T22:38:23.992Z,64.11
2017-07-23T22:40:51.404Z,64.03
2017-07-23T22:43:18.840Z,64.19
2017-07-23T22:45:46.363Z,64.31
2017-07-23T22:48:13.832Z,64.98
2017-07-23T22:50:42.282Z,65.39
2017-07-23T22:53:09.704Z,65.71
2017-07-23T22:55:37.283Z,65.36
2017-07-23T22:58:04.715Z,65.05
2017-07-23T23:00:32.124Z,64.33
2017-07-23T23:02:59.562Z,64.87
2017-07-23T23:05:27.029Z,65.04
2017-07-23T23:07:54.472Z,64.28
2017-07-23T23:10:21.903Z,64.30
2017-07-23T23:12:49.348Z,64.54
2017-07-23T23:15:16.768Z,64.20
2017-07-23T23:17:44.182Z,64.20
2017-07-23T23:20:11.623Z,64.17
2017-07-23T23:22:39.028Z,64.05
2017-07-23T23:25:06.436Z,64.24
2017-07-23T23:27:33.862Z,65.30
2017-07-23T23:30:01.280Z,65.22
2017-07-23T23:32:28.772Z,65.64
2017-07-23T23:34:56.195Z,66.29
2017-07-23T23:37:23.599Z,66.60
2017-07-23T23:39:51.032Z,66.28
2017-07-23T23:42:18.464Z,66.61
2017-07-23T23:44:45.903Z,66.32
2017-07-23T23:47:13.335Z,65.82
2017-07-23T23:49:40.764Z,65.88
2017-07-23T23:52:08.192Z,66.23
2017-07-23T23:54:35.583Z,66.19
2017-07-23T23:57:03.034Z,66.47
2017-07-23T23:59:30.461Z,66.12
